Cruzeiro do Sul, Brazil
Current Conditions -  °F | °C
As of 1:00 PM on Friday 28 Nov 2014 (Local Time) from SBCZ Reporting Station
Broken Clouds Broken Clouds  
Wind Chill: 90°   Ceiling: 3000
Heat Index: 105°   Visibility: 6mi
Dew Point: 79°   Wind: 7mph
Humidity: 70%   Direction: 20°NNE
Pressure: 29.85"   Gusts: NA
Location:  7.63°S, 72.67°W
Report Text: SBCZ 281700Z 02006KT 9999 BKN030 BKN100 32/26 Q1011
Loading
Personal Weather Stations






























Interactive Weather Map New forecast layout! Learn more

10-Day Weather Forecast

Advertisements
Track Severe Weather on mobile